createdAt,value
2018-06-15T00:12:59.063Z,3.8
2018-06-15T00:29:42.714Z,3.8
2018-06-15T00:46:26.400Z,3.8
2018-06-15T01:03:10.017Z,3.8
2018-06-15T01:19:53.636Z,3.7
2018-06-15T01:36:37.179Z,3.7
2018-06-15T01:53:20.465Z,3.7
2018-06-15T02:10:03.193Z,3.7
2018-06-15T02:26:45.650Z,3.7
2018-06-15T02:43:27.809Z,3.7
2018-06-15T03:00:10.026Z,3.7
2018-06-15T03:16:52.461Z,3.7
2018-06-15T03:33:35.120Z,3.7
2018-06-15T03:50:17.949Z,3.7
2018-06-15T04:07:00.941Z,3.7
2018-06-15T04:23:44.025Z,3.7
2018-06-15T04:40:27.238Z,3.7
2018-06-15T04:57:10.686Z,3.7
2018-06-15T05:13:54.682Z,3.8
2018-06-15T05:30:39.233Z,3.8
2018-06-15T05:47:23.578Z,3.8
2018-06-15T06:04:08.258Z,3.8
2018-06-15T06:20:52.894Z,3.9
2018-06-15T06:34:16.866Z,3.9
2018-06-15T06:40:59.149Z,4.0
2018-06-15T06:47:41.511Z,4.0
2018-06-15T06:57:45.570Z,4.0
2018-06-15T07:14:32.674Z,4.0
2018-06-15T07:24:36.991Z,4.0
2018-06-15T07:34:40.911Z,4.1
2018-06-15T07:51:27.106Z,4.1
2018-06-15T08:08:13.602Z,4.0
2018-06-15T08:14:56.535Z,4.0
2018-06-15T08:25:01.114Z,4.0
2018-06-15T08:38:27.914Z,4.1
2018-06-15T08:45:11.543Z,4.1
2018-06-15T09:02:00.738Z,4.1
2018-06-15T09:18:49.559Z,4.1
2018-06-15T09:22:11.426Z,4.1
2018-06-15T09:39:00.978Z,4.1
2018-06-15T09:55:50.444Z,4.1
2018-06-15T10:12:39.982Z,4.1
2018-06-15T10:29:29.306Z,4.0
2018-06-15T10:42:57.053Z,4.1
2018-06-15T10:59:46.431Z,4.1
2018-06-15T11:13:14.748Z,4.1
2018-06-15T11:30:05.103Z,4.1
2018-06-15T11:43:33.950Z,4.1
2018-06-15T12:00:25.569Z,4.1
2018-06-15T12:07:10.405Z,4.2
2018-06-15T12:24:02.647Z,4.1
2018-06-15T12:40:54.838Z,4.1
2018-06-15T12:57:47.007Z,4.1
2018-06-15T13:14:39.355Z,4.2
2018-06-15T13:31:34.779Z,4.2
2018-06-15T13:38:17.489Z,4.3
2018-06-15T13:43:21.578Z,4.3
2018-06-15T14:00:15.962Z,4.3
2018-06-15T14:12:05.465Z,4.2
2018-06-15T14:28:58.020Z,4.2
2018-06-15T14:45:50.326Z,4.1
2018-06-15T14:59:20.385Z,4.2
2018-06-15T15:16:13.763Z,4.3
2018-06-15T15:33:07.602Z,4.3
2018-06-15T15:44:57.471Z,4.3
2018-06-15T16:01:50.611Z,4.3
2018-06-15T16:06:54.901Z,4.3
2018-06-15T16:15:22.135Z,4.3
2018-06-15T16:25:30.138Z,4.4
2018-06-15T16:28:53.108Z,4.4
2018-06-15T16:33:57.759Z,4.5
2018-06-15T16:50:53.946Z,4.6
2018-06-15T17:07:50.340Z,4.6
2018-06-15T17:14:36.717Z,4.5
2018-06-15T17:17:59.796Z,4.4
2018-06-15T17:23:04.181Z,4.2
2018-06-15T17:39:57.358Z,4.2
2018-06-15T17:53:28.039Z,4.1
2018-06-15T18:10:20.497Z,4.1
2018-06-15T18:23:49.880Z,4.1
2018-06-15T18:40:40.939Z,4.0
2018-06-15T18:57:31.600Z,4.0
2018-06-15T19:14:22.114Z,4.0
2018-06-15T19:27:50.137Z,4.0
2018-06-15T19:41:17.815Z,4.0
2018-06-15T19:58:06.642Z,4.0
2018-06-15T20:14:55.599Z,4.0
2018-06-15T20:31:44.408Z,3.9
2018-06-15T20:48:33.029Z,3.9
2018-06-15T21:05:21.437Z,3.9
2018-06-15T21:22:09.597Z,3.9
2018-06-15T21:32:14.148Z,3.9
2018-06-15T21:49:01.544Z,3.9
2018-06-15T22:05:48.718Z,3.9
2018-06-15T22:22:35.665Z,3.9
2018-06-15T22:39:22.186Z,3.9
2018-06-15T22:56:08.467Z,3.9
2018-06-15T23:12:54.489Z,3.8
2018-06-15T23:29:40.262Z,3.8
2018-06-15T23:46:25.943Z,3.8
